sensor_id;sensor_type;location;lat;lon;timestamp;noise_LAeq;noise_LA_min;noise_LA_max;noise_LA01;noise_LA95
67294;Laerm;58160;51.434;5.978;2023-04-03T00:00:08;30.81;29.77;31.72;;
67294;Laerm;58160;51.434;5.978;2023-04-03T00:00:19;30.85;30.11;31.89;;
67294;Laerm;58160;51.434;5.978;2023-04-03T00:00:30;30.96;29.89;33.10;;
67294;Laerm;58160;51.434;5.978;2023-04-03T00:00:41;30.84;29.46;31.81;;
67294;Laerm;58160;51.434;5.978;2023-04-03T00:00:52;30.92;29.89;32.25;;
67294;Laerm;58160;51.434;5.978;2023-04-03T00:01:02;38.20;30.09;42.29;;
67294;Laerm;58160;51.434;5.978;2023-04-03T00:01:13;38.28;33.27;42.16;;
67294;Laerm;58160;51.434;5.978;2023-04-03T00:01:23;36.36;33.99;38.24;;
67294;Laerm;58160;51.434;5.978;2023-04-03T00:01:34;45.17;35.63;51.87;;
67294;Laerm;58160;51.434;5.978;2023-04-03T00:01:45;56.92;50.21;61.58;;
67294;Laerm;58160;51.434;5.978;2023-04-03T00:01:55;58.89;56.23;61.14;;
67294;Laerm;58160;51.434;5.978;2023-04-03T00:02:05;57.81;53.86;61.09;;
67294;Laerm;58160;51.434;5.978;2023-04-03T00:02:16;53.30;47.83;56.66;;
67294;Laerm;58160;51.434;5.978;2023-04-03T00:02:26;45.69;39.97;49.54;;
67294;Laerm;58160;51.434;5.978;2023-04-03T00:02:36;39.76;35.88;42.47;;
67294;Laerm;58160;51.434;5.978;2023-04-03T00:02:47;37.77;34.74;40.66;;
67294;Laerm;58160;51.434;5.978;2023-04-03T00:02:57;38.27;35.80;40.73;;
67294;Laerm;58160;51.434;5.978;2023-04-03T00:03:08;37.16;34.49;40.51;;
67294;Laerm;58160;51.434;5.978;2023-04-03T00:03:18;36.52;34.14;39.43;;
67294;Laerm;58160;51.434;5.978;2023-04-03T00:03:29;34.81;31.67;37.53;;
67294;Laerm;58160;51.434;5.978;2023-04-03T00:03:39;32.42;30.87;35.95;;
67294;Laerm;58160;51.434;5.978;2023-04-03T00:03:51;32.27;30.92;33.84;;
67294;Laerm;58160;51.434;5.978;2023-04-03T00:04:01;32.34;30.86;34.75;;
67294;Laerm;58160;51.434;5.978;2023-04-03T00:04:12;31.83;30.56;32.95;;
67294;Laerm;58160;51.434;5.978;2023-04-03T00:04:22;31.63;30.54;32.87;;
67294;Laerm;58160;51.434;5.978;2023-04-03T00:04:32;31.30;30.08;32.53;;
67294;Laerm;58160;51.434;5.978;2023-04-03T00:04:43;31.11;30.07;32.20;;
67294;Laerm;58160;51.434;5.978;2023-04-03T00:04:53;31.00;29.73;33.10;;
67294;Laerm;58160;51.434;5.978;2023-04-03T00:05:03;31.04;29.96;32.61;;
67294;Laerm;58160;51.434;5.978;2023-04-03T00:05:14;31.03;29.99;32.85;;
67294;Laerm;58160;51.434;5.978;2023-04-03T00:05:25;30.88;29.84;31.95;;
67294;Laerm;58160;51.434;5.978;2023-04-03T00:05:36;31.02;29.93;37.32;;
67294;Laerm;58160;51.434;5.978;2023-04-03T00:05:46;31.54;29.86;41.32;;
67294;Laerm;58160;51.434;5.978;2023-04-03T00:05:57;30.89;29.98;31.91;;
67294;Laerm;58160;51.434;5.978;2023-04-03T00:06:07;31.25;29.82;39.89;;
67294;Laerm;58160;51.434;5.978;2023-04-03T00:06:18;30.92;29.90;34.27;;
67294;Laerm;58160;51.434;5.978;2023-04-03T00:06:29;31.04;29.45;37.43;;
67294;Laerm;58160;51.434;5.978;2023-04-03T00:06:39;31.01;29.75;38.96;;
67294;Laerm;58160;51.434;5.978;2023-04-03T00:06:49;30.80;29.83;32.76;;
67294;Laerm;58160;51.434;5.978;2023-04-03T00:07:00;31.25;29.94;41.09;;
67294;Laerm;58160;51.434;5.978;2023-04-03T00:07:10;30.83;29.79;31.76;;
67294;Laerm;58160;51.434;5.978;2023-04-03T00:07:22;31.51;29.83;44.00;;
67294;Laerm;58160;51.434;5.978;2023-04-03T00:07:32;30.87;29.80;32.08;;
67294;Laerm;58160;51.434;5.978;2023-04-03T00:07:43;30.84;29.83;32.48;;
67294;Laerm;58160;51.434;5.978;2023-04-03T00:07:53;30.76;29.77;32.37;;
67294;Laerm;58160;51.434;5.978;2023-04-03T00:08:03;30.75;29.64;31.61;;
67294;Laerm;58160;51.434;5.978;2023-04-03T00:08:17;30.87;29.67;31.88;;
67294;Laerm;58160;51.434;5.978;2023-04-03T00:08:28;30.78;29.62;31.76;;
67294;Laerm;58160;51.434;5.978;2023-04-03T00:08:41;30.84;29.79;32.79;;
67294;Laerm;58160;51.434;5.978;2023-04-03T00:08:51;30.77;29.77;31.83;;
67294;Laerm;58160;51.434;5.978;2023-04-03T00:09:02;30.79;29.99;31.99;;
67294;Laerm;58160;51.434;5.978;2023-04-03T00:09:12;30.79;29.61;31.87;;
67294;Laerm;58160;51.434;5.978;2023-04-03T00:09:22;30.78;29.72;31.81;;
67294;Laerm;58160;51.434;5.978;2023-04-03T00:09:33;30.74;29.64;31.98;;
67294;Laerm;58160;51.434;5.978;2023-04-03T00:09:43;30.99;29.76;35.32;;
67294;Laerm;58160;51.434;5.978;2023-04-03T00:09:53;30.79;29.60;32.52;;
67294;Laerm;58160;51.434;5.978;2023-04-03T00:10:04;30.77;29.85;31.66;;
67294;Laerm;58160;51.434;5.978;2023-04-03T00:10:14;30.79;29.80;32.11;;
67294;Laerm;58160;51.434;5.978;2023-04-03T00:10:25;30.83;29.98;31.79;;
67294;Laerm;58160;51.434;5.978;2023-04-03T00:10:36;30.84;29.95;31.97;;
67294;Laerm;58160;51.434;5.978;2023-04-03T00:10:46;30.82;29.75;31.73;;
67294;Laerm;58160;51.434;5.978;2023-04-03T00:10:57;30.81;29.73;31.59;;
67294;Laerm;58160;51.434;5.978;2023-04-03T00:11:07;30.83;29.90;31.90;;
67294;Laerm;58160;51.434;5.978;2023-04-03T00:11:18;30.81;29.93;34.70;;
67294;Laerm;58160;51.434;5.978;2023-04-03T00:11:29;30.80;29.93;31.79;;
67294;Laerm;58160;51.434;5.978;2023-04-03T00:11:39;30.82;29.92;31.76;;
67294;Laerm;58160;51.434;5.978;2023-04-03T00:11:49;30.79;29.59;31.71;;
67294;Laerm;58160;51.434;5.978;2023-04-03T00:12:00;30.87;30.06;31.88;;
67294;Laerm;58160;51.434;5.978;2023-04-03T00:12:10;30.84;29.69;31.89;;
67294;Laerm;58160;51.434;5.978;2023-04-03T00:12:21;30.86;29.79;34.72;;
67294;Laerm;58160;51.434;5.978;2023-04-03T00:12:31;30.82;29.62;31.86;;
67294;Laerm;58160;51.434;5.978;2023-04-03T00:12:41;30.81;29.91;32.06;;
67294;Laerm;58160;51.434;5.978;2023-04-03T00:12:52;30.84;29.70;32.29;;
67294;Laerm;58160;51.434;5.978;2023-04-03T00:13:05;30.86;29.41;31.69;;
67294;Laerm;58160;51.434;5.978;2023-04-03T00:13:16;30.83;29.68;31.78;;
67294;Laerm;58160;51.434;5.978;2023-04-03T00:13:26;30.81;29.81;31.66;;
67294;Laerm;58160;51.434;5.978;2023-04-03T00:13:37;30.87;29.70;31.91;;
67294;Laerm;58160;51.434;5.978;2023-04-03T00:13:47;30.97;29.92;34.17;;
67294;Laerm;58160;51.434;5.978;2023-04-03T00:13:58;31.10;30.15;34.44;;
67294;Laerm;58160;51.434;5.978;2023-04-03T00:14:08;30.93;29.76;32.16;;
67294;Laerm;58160;51.434;5.978;2023-04-03T00:14:18;30.86;29.94;31.72;;
67294;Laerm;58160;51.434;5.978;2023-04-03T00:14:29;30.83;30.10;33.99;;
67294;Laerm;58160;51.434;5.978;2023-04-03T00:14:39;30.86;29.83;31.70;;
67294;Laerm;58160;51.434;5.978;2023-04-03T00:14:50;30.80;29.61;31.77;;
67294;Laerm;58160;51.434;5.978;2023-04-03T00:15:00;30.82;29.83;31.72;;
67294;Laerm;58160;51.434;5.978;2023-04-03T00:15:10;30.84;29.76;31.73;;
67294;Laerm;58160;51.434;5.978;2023-04-03T00:15:21;31.01;29.76;32.95;;
67294;Laerm;58160;51.434;5.978;2023-04-03T00:15:32;30.98;29.95;33.07;;
67294;Laerm;58160;51.434;5.978;2023-04-03T00:15:42;30.87;29.71;31.81;;
67294;Laerm;58160;51.434;5.978;2023-04-03T00:15:53;30.84;29.84;31.83;;
67294;Laerm;58160;51.434;5.978;2023-04-03T00:16:04;30.83;29.34;31.90;;
67294;Laerm;58160;51.434;5.978;2023-04-03T00:16:15;30.85;30.01;31.79;;
67294;Laerm;58160;51.434;5.978;2023-04-03T00:16:25;30.87;29.97;31.54;;
67294;Laerm;58160;51.434;5.978;2023-04-03T00:16:36;30.84;29.86;32.14;;
67294;Laerm;58160;51.434;5.978;2023-04-03T00:16:46;30.82;29.95;31.83;;
67294;Laerm;58160;51.434;5.978;2023-04-03T00:16:56;30.85;29.71;31.75;;
67294;Laerm;58160;51.434;5.978;2023-04-03T00:17:07;30.83;29.90;31.92;;
67294;Laerm;58160;51.434;5.978;2023-04-03T00:17:17;30.86;29.83;31.59;;
67294;Laerm;58160;51.434;5.978;2023-04-03T00:17:27;30.90;29.77;32.72;;
67294;Laerm;58160;51.434;5.978;2023-04-03T00:17:38;30.88;29.67;32.19;;
67294;Laerm;58160;51.434;5.978;2023-04-03T00:17:48;30.90;29.96;31.87;;
67294;Laerm;58160;51.434;5.978;2023-04-03T00:17:58;30.93;29.74;31.83;;
67294;Laerm;58160;51.434;5.978;2023-04-03T00:18:09;31.20;29.96;32.52;;
67294;Laerm;58160;51.434;5.978;2023-04-03T00:18:19;31.93;30.40;34.20;;
67294;Laerm;58160;51.434;5.978;2023-04-03T00:18:30;33.17;31.41;35.22;;
67294;Laerm;58160;51.434;5.978;2023-04-03T00:18:41;32.86;31.11;35.02;;
67294;Laerm;58160;51.434;5.978;2023-04-03T00:18:51;32.13;30.33;34.59;;
67294;Laerm;58160;51.434;5.978;2023-04-03T00:19:01;31.87;30.03;33.49;;
67294;Laerm;58160;51.434;5.978;2023-04-03T00:19:12;32.21;30.44;44.71;;
67294;Laerm;58160;51.434;5.978;2023-04-03T00:19:22;31.40;30.36;32.51;;
67294;Laerm;58160;51.434;5.978;2023-04-03T00:19:33;31.61;30.63;32.68;;
67294;Laerm;58160;51.434;5.978;2023-04-03T00:19:43;31.52;30.39;33.16;;
67294;Laerm;58160;51.434;5.978;2023-04-03T00:19:53;31.55;30.38;32.64;;
67294;Laerm;58160;51.434;5.978;2023-04-03T00:20:04;31.39;30.40;32.86;;
67294;Laerm;58160;51.434;5.978;2023-04-03T00:20:15;31.41;30.23;32.90;;
67294;Laerm;58160;51.434;5.978;2023-04-03T00:20:25;31.71;30.56;33.35;;
67294;Laerm;58160;51.434;5.978;2023-04-03T00:20:37;32.35;30.35;34.19;;
67294;Laerm;58160;51.434;5.978;2023-04-03T00:20:47;33.12;31.79;34.69;;
67294;Laerm;58160;51.434;5.978;2023-04-03T00:20:58;35.41;31.44;38.76;;
67294;Laerm;58160;51.434;5.978;2023-04-03T00:21:09;37.05;34.54;39.52;;
67294;Laerm;58160;51.434;5.978;2023-04-03T00:21:20;36.93;34.34;39.78;;
67294;Laerm;58160;51.434;5.978;2023-04-03T00:21:30;42.11;37.35;46.91;;
67294;Laerm;58160;51.434;5.978;2023-04-03T00:21:40;52.13;44.84;57.14;;
67294;Laerm;58160;51.434;5.978;2023-04-03T00:21:51;57.33;53.60;60.36;;
67294;Laerm;58160;51.434;5.978;2023-04-03T00:22:03;58.96;56.44;61.85;;
67294;Laerm;58160;51.434;5.978;2023-04-03T00:22:13;57.04;52.58;61.67;;
67294;Laerm;58160;51.434;5.978;2023-04-03T00:22:24;50.37;42.35;55.21;;
67294;Laerm;58160;51.434;5.978;2023-04-03T00:22:36;37.31;31.09;44.23;;
67294;Laerm;58160;51.434;5.978;2023-04-03T00:22:47;31.53;30.09;32.67;;
67294;Laerm;58160;51.434;5.978;2023-04-03T00:22:57;31.15;29.71;33.91;;
67294;Laerm;58160;51.434;5.978;2023-04-03T00:23:07;30.98;29.96;31.87;;
67294;Laerm;58160;51.434;5.978;2023-04-03T00:23:18;30.89;29.71;31.91;;
67294;Laerm;58160;51.434;5.978;2023-04-03T00:23:28;30.85;29.86;34.32;;
67294;Laerm;58160;51.434;5.978;2023-04-03T00:23:39;30.77;29.80;31.68;;
67294;Laerm;58160;51.434;5.978;2023-04-03T00:23:49;30.82;29.80;31.88;;
67294;Laerm;58160;51.434;5.978;2023-04-03T00:24:00;30.79;29.74;31.64;;
67294;Laerm;58160;51.434;5.978;2023-04-03T00:24:10;30.82;29.80;31.87;;
67294;Laerm;58160;51.434;5.978;2023-04-03T00:24:21;30.81;29.75;32.27;;
67294;Laerm;58160;51.434;5.978;2023-04-03T00:24:31;30.80;29.74;31.87;;
67294;Laerm;58160;51.434;5.978;2023-04-03T00:24:41;30.71;29.66;31.71;;
67294;Laerm;58160;51.434;5.978;2023-04-03T00:24:52;30.79;29.88;31.68;;
67294;Laerm;58160;51.434;5.978;2023-04-03T00:25:02;30.72;29.25;31.64;;
67294;Laerm;58160;51.434;5.978;2023-04-03T00:25:13;30.78;29.77;31.72;;
67294;Laerm;58160;51.434;5.978;2023-04-03T00:25:23;30.87;29.63;31.89;;
67294;Laerm;58160;51.434;5.978;2023-04-03T00:25:33;30.79;29.58;32.46;;
67294;Laerm;58160;51.434;5.978;2023-04-03T00:25:44;30.76;29.88;31.75;;
67294;Laerm;58160;51.434;5.978;2023-04-03T00:25:54;30.85;29.80;32.13;;
67294;Laerm;58160;51.434;5.978;2023-04-03T00:26:05;30.92;29.84;31.80;;
67294;Laerm;58160;51.434;5.978;2023-04-03T00:26:15;31.23;30.23;33.13;;
67294;Laerm;58160;51.434;5.978;2023-04-03T00:26:26;31.07;30.06;32.16;;
67294;Laerm;58160;51.434;5.978;2023-04-03T00:26:36;31.03;30.09;32.84;;
67294;Laerm;58160;51.434;5.978;2023-04-03T00:26:46;30.97;29.97;31.88;;
67294;Laerm;58160;51.434;5.978;2023-04-03T00:26:57;30.83;30.00;32.10;;
67294;Laerm;58160;51.434;5.978;2023-04-03T00:27:07;30.92;29.96;32.96;;
67294;Laerm;58160;51.434;5.978;2023-04-03T00:27:17;30.84;29.86;32.07;;
67294;Laerm;58160;51.434;5.978;2023-04-03T00:27:28;30.88;29.31;31.80;;
67294;Laerm;58160;51.434;5.978;2023-04-03T00:27:38;31.05;29.95;32.63;;
67294;Laerm;58160;51.434;5.978;2023-04-03T00:27:49;31.30;30.10;32.46;;
67294;Laerm;58160;51.434;5.978;2023-04-03T00:28:00;31.73;30.24;32.91;;
67294;Laerm;58160;51.434;5.978;2023-04-03T00:28:10;31.82;30.26;34.17;;
67294;Laerm;58160;51.434;5.978;2023-04-03T00:28:20;31.75;30.65;32.91;;
67294;Laerm;58160;51.434;5.978;2023-04-03T00:28:31;31.39;30.17;32.66;;
67294;Laerm;58160;51.434;5.978;2023-04-03T00:28:41;31.18;30.15;32.45;;
67294;Laerm;58160;51.434;5.978;2023-04-03T00:28:51;31.02;29.87;32.06;;
67294;Laerm;58160;51.434;5.978;2023-04-03T00:29:02;31.07;29.78;32.12;;
67294;Laerm;58160;51.434;5.978;2023-04-03T00:29:12;31.49;30.40;32.73;;
67294;Laerm;58160;51.434;5.978;2023-04-03T00:29:23;32.23;30.86;33.93;;
67294;Laerm;58160;51.434;5.978;2023-04-03T00:29:33;33.22;31.55;35.09;;
67294;Laerm;58160;51.434;5.978;2023-04-03T00:29:43;36.21;32.07;42.43;;
67294;Laerm;58160;51.434;5.978;2023-04-03T00:29:54;41.17;38.34;44.11;;
67294;Laerm;58160;51.434;5.978;2023-04-03T00:30:05;38.56;35.66;41.13;;
67294;Laerm;58160;51.434;5.978;2023-04-03T00:30:16;41.67;37.15;45.96;;
67294;Laerm;58160;51.434;5.978;2023-04-03T00:30:27;50.95;43.87;55.69;;
67294;Laerm;58160;51.434;5.978;2023-04-03T00:30:38;58.29;53.90;61.56;;
67294;Laerm;58160;51.434;5.978;2023-04-03T00:30:48;61.34;58.77;64.28;;
67294;Laerm;58160;51.434;5.978;2023-04-03T00:30:59;59.81;56.12;61.96;;
67294;Laerm;58160;51.434;5.978;2023-04-03T00:31:09;55.47;51.19;60.44;;
67294;Laerm;58160;51.434;5.978;2023-04-03T00:31:20;47.71;37.74;53.71;;
67294;Laerm;58160;51.434;5.978;2023-04-03T00:31:30;35.60;31.75;41.07;;
67294;Laerm;58160;51.434;5.978;2023-04-03T00:31:41;31.72;30.43;33.10;;
67294;Laerm;58160;51.434;5.978;2023-04-03T00:31:51;30.98;29.99;32.32;;
67294;Laerm;58160;51.434;5.978;2023-04-03T00:32:01;30.90;29.97;32.02;;
67294;Laerm;58160;51.434;5.978;2023-04-03T00:32:12;30.84;29.72;31.86;;
67294;Laerm;58160;51.434;5.978;2023-04-03T00:32:22;30.85;29.63;31.92;;
67294;Laerm;58160;51.434;5.978;2023-04-03T00:32:33;30.81;30.00;31.92;;
67294;Laerm;58160;51.434;5.978;2023-04-03T00:32:43;30.81;29.86;31.85;;
67294;Laerm;58160;51.434;5.978;2023-04-03T00:32:54;30.73;29.83;31.80;;
67294;Laerm;58160;51.434;5.978;2023-04-03T00:33:04;30.75;29.79;31.65;;
67294;Laerm;58160;51.434;5.978;2023-04-03T00:33:15;30.84;29.81;31.85;;
67294;Laerm;58160;51.434;5.978;2023-04-03T00:33:25;30.80;29.93;31.74;;
67294;Laerm;58160;51.434;5.978;2023-04-03T00:33:36;30.85;29.65;31.69;;
67294;Laerm;58160;51.434;5.978;2023-04-03T00:33:46;30.82;29.93;31.99;;
67294;Laerm;58160;51.434;5.978;2023-04-03T00:33:56;30.81;29.79;31.74;;
67294;Laerm;58160;51.434;5.978;2023-04-03T00:34:06;30.79;29.55;31.95;;
67294;Laerm;58160;51.434;5.978;2023-04-03T00:34:17;30.77;29.80;31.53;;
67294;Laerm;58160;51.434;5.978;2023-04-03T00:34:27;30.74;29.87;31.47;;
67294;Laerm;58160;51.434;5.978;2023-04-03T00:34:37;30.79;29.83;31.71;;
67294;Laerm;58160;51.434;5.978;2023-04-03T00:34:48;30.82;29.76;31.85;;
67294;Laerm;58160;51.434;5.978;2023-04-03T00:34:58;30.80;29.62;31.82;;
67294;Laerm;58160;51.434;5.978;2023-04-03T00:35:08;30.80;29.86;31.68;;
67294;Laerm;58160;51.434;5.978;2023-04-03T00:35:19;30.80;29.91;31.91;;
67294;Laerm;58160;51.434;5.978;2023-04-03T00:35:30;30.84;29.88;31.93;;
67294;Laerm;58160;51.434;5.978;2023-04-03T00:35:40;30.87;29.84;31.74;;
67294;Laerm;58160;51.434;5.978;2023-04-03T00:35:50;30.92;29.90;31.69;;
67294;Laerm;58160;51.434;5.978;2023-04-03T00:36:08;30.88;29.97;32.03;;
67294;Laerm;58160;51.434;5.978;2023-04-03T00:36:19;30.88;29.73;32.16;;
67294;Laerm;58160;51.434;5.978;2023-04-03T00:36:29;30.86;30.01;32.18;;
67294;Laerm;58160;51.434;5.978;2023-04-03T00:36:40;30.91;29.72;32.91;;
67294;Laerm;58160;51.434;5.978;2023-04-03T00:36:50;30.90;29.92;31.68;;
67294;Laerm;58160;51.434;5.978;2023-04-03T00:37:01;30.91;29.81;32.12;;
67294;Laerm;58160;51.434;5.978;2023-04-03T00:37:11;30.86;29.63;31.87;;
67294;Laerm;58160;51.434;5.978;2023-04-03T00:37:22;30.92;29.59;31.91;;
67294;Laerm;58160;51.434;5.978;2023-04-03T00:37:32;30.88;29.79;31.87;;
67294;Laerm;58160;51.434;5.978;2023-04-03T00:37:43;31.03;29.93;32.70;;
67294;Laerm;58160;51.434;5.978;2023-04-03T00:37:53;31.09;30.35;32.37;;
67294;Laerm;58160;51.434;5.978;2023-04-03T00:38:04;31.17;29.96;35.94;;
67294;Laerm;58160;51.434;5.978;2023-04-03T00:38:14;31.00;30.01;32.04;;
67294;Laerm;58160;51.434;5.978;2023-04-03T00:38:25;30.92;29.68;32.05;;
67294;Laerm;58160;51.434;5.978;2023-04-03T00:38:36;31.02;30.01;32.26;;
67294;Laerm;58160;51.434;5.978;2023-04-03T00:38:46;31.00;29.85;32.01;;
67294;Laerm;58160;51.434;5.978;2023-04-03T00:38:56;30.97;29.96;33.00;;
67294;Laerm;58160;51.434;5.978;2023-04-03T00:39:07;30.89;29.99;31.95;;
67294;Laerm;58160;51.434;5.978;2023-04-03T00:39:17;30.89;29.82;31.94;;
67294;Laerm;58160;51.434;5.978;2023-04-03T00:39:27;30.86;29.95;31.70;;
67294;Laerm;58160;51.434;5.978;2023-04-03T00:39:38;30.93;29.65;31.97;;
67294;Laerm;58160;51.434;5.978;2023-04-03T00:39:49;30.90;29.68;31.96;;
67294;Laerm;58160;51.434;5.978;2023-04-03T00:39:59;30.86;29.82;31.93;;
67294;Laerm;58160;51.434;5.978;2023-04-03T00:40:10;30.85;29.86;31.66;;
67294;Laerm;58160;51.434;5.978;2023-04-03T00:40:22;30.87;29.83;33.79;;
67294;Laerm;58160;51.434;5.978;2023-04-03T00:40:37;31.01;29.56;32.29;;
67294;Laerm;58160;51.434;5.978;2023-04-03T00:40:48;31.23;29.85;33.35;;
67294;Laerm;58160;51.434;5.978;2023-04-03T00:40:58;31.37;30.38;32.65;;
67294;Laerm;58160;51.434;5.978;2023-04-03T00:41:09;31.17;29.94;32.27;;
67294;Laerm;58160;51.434;5.978;2023-04-03T00:41:19;31.01;29.91;32.09;;
67294;Laerm;58160;51.434;5.978;2023-04-03T00:41:29;31.25;30.17;32.15;;
67294;Laerm;58160;51.434;5.978;2023-04-03T00:41:40;30.99;29.74;32.20;;
67294;Laerm;58160;51.434;5.978;2023-04-03T00:41:50;30.84;29.72;32.03;;
67294;Laerm;58160;51.434;5.978;2023-04-03T00:42:01;30.91;29.91;31.80;;
67294;Laerm;58160;51.434;5.978;2023-04-03T00:42:11;31.34;30.22;32.47;;
67294;Laerm;58160;51.434;5.978;2023-04-03T00:42:22;31.35;30.27;32.77;;
67294;Laerm;58160;51.434;5.978;2023-04-03T00:42:33;34.28;30.64;39.81;;
67294;Laerm;58160;51.434;5.978;2023-04-03T00:42:43;34.60;30.94;38.00;;
67294;Laerm;58160;51.434;5.978;2023-04-03T00:42:57;32.03;30.11;34.41;;
67294;Laerm;58160;51.434;5.978;2023-04-03T00:43:19;32.18;30.25;34.20;;
67294;Laerm;58160;51.434;5.978;2023-04-03T00:43:29;31.95;30.27;34.30;;
67294;Laerm;58160;51.434;5.978;2023-04-03T00:43:40;33.49;30.45;36.21;;
67294;Laerm;58160;51.434;5.978;2023-04-03T00:43:50;30.80;29.67;31.85;;
67294;Laerm;58160;51.434;5.978;2023-04-03T00:44:16;31.05;29.93;34.35;;
67294;Laerm;58160;51.434;5.978;2023-04-03T00:45:37;30.95;29.86;32.02;;
67294;Laerm;58160;51.434;5.978;2023-04-03T00:45:49;30.74;29.61;31.70;;
67294;Laerm;58160;51.434;5.978;2023-04-03T00:46:00;30.73;29.45;31.77;;
67294;Laerm;58160;51.434;5.978;2023-04-03T00:46:10;30.72;29.50;31.83;;
67294;Laerm;58160;51.434;5.978;2023-04-03T00:46:20;30.73;29.66;31.91;;
67294;Laerm;58160;51.434;5.978;2023-04-03T00:46:31;30.71;29.55;32.04;;
67294;Laerm;58160;51.434;5.978;2023-04-03T00:46:41;30.74;29.61;31.70;;
67294;Laerm;58160;51.434;5.978;2023-04-03T00:46:51;30.71;29.66;31.72;;
67294;Laerm;58160;51.434;5.978;2023-04-03T00:47:02;30.69;29.60;31.76;;
67294;Laerm;58160;51.434;5.978;2023-04-03T00:47:15;30.70;29.72;31.89;;
67294;Laerm;58160;51.434;5.978;2023-04-03T00:47:26;30.69;29.75;31.62;;
67294;Laerm;58160;51.434;5.978;2023-04-03T00:47:37;30.71;29.30;31.60;;
67294;Laerm;58160;51.434;5.978;2023-04-03T00:47:48;30.76;29.67;32.13;;
67294;Laerm;58160;51.434;5.978;2023-04-03T00:47:59;30.85;29.85;33.56;;
67294;Laerm;58160;51.434;5.978;2023-04-03T00:48:13;30.75;29.74;31.90;;
67294;Laerm;58160;51.434;5.978;2023-04-03T00:48:26;30.77;29.82;31.79;;
67294;Laerm;58160;51.434;5.978;2023-04-03T00:48:41;30.83;29.62;32.20;;
67294;Laerm;58160;51.434;5.978;2023-04-03T00:48:52;30.98;29.71;33.31;;
67294;Laerm;58160;51.434;5.978;2023-04-03T00:49:02;30.89;29.88;31.98;;
67294;Laerm;58160;51.434;5.978;2023-04-03T00:49:13;31.14;29.86;37.87;;
67294;Laerm;58160;51.434;5.978;2023-04-03T00:49:23;30.90;29.97;31.82;;
67294;Laerm;58160;51.434;5.978;2023-04-03T00:49:34;30.91;30.08;32.08;;
67294;Laerm;58160;51.434;5.978;2023-04-03T00:49:45;30.88;29.88;31.75;;
67294;Laerm;58160;51.434;5.978;2023-04-03T00:49:56;30.79;29.67;31.82;;
67294;Laerm;58160;51.434;5.978;2023-04-03T00:50:07;30.87;29.85;31.73;;
67294;Laerm;58160;51.434;5.978;2023-04-03T00:50:17;30.79;29.85;31.66;;
67294;Laerm;58160;51.434;5.978;2023-04-03T00:50:28;30.86;29.98;34.49;;
67294;Laerm;58160;51.434;5.978;2023-04-03T00:50:40;30.87;30.02;32.02;;
67294;Laerm;58160;51.434;5.978;2023-04-03T00:50:51;31.21;29.96;33.80;;
67294;Laerm;58160;51.434;5.978;2023-04-03T00:51:02;30.95;29.79;32.31;;
67294;Laerm;58160;51.434;5.978;2023-04-03T00:51:18;30.86;29.79;31.89;;
67294;Laerm;58160;51.434;5.978;2023-04-03T00:51:29;30.90;29.78;35.09;;
67294;Laerm;58160;51.434;5.978;2023-04-03T00:51:40;31.12;29.77;33.53;;
67294;Laerm;58160;51.434;5.978;2023-04-03T00:51:50;31.40;30.10;35.24;;
67294;Laerm;58160;51.434;5.978;2023-04-03T00:52:01;30.98;29.84;33.38;;
67294;Laerm;58160;51.434;5.978;2023-04-03T00:52:13;30.82;29.81;31.72;;
67294;Laerm;58160;51.434;5.978;2023-04-03T00:52:25;30.80;29.80;32.00;;
67294;Laerm;58160;51.434;5.978;2023-04-03T00:52:37;30.86;29.88;32.43;;
67294;Laerm;58160;51.434;5.978;2023-04-03T00:52:48;30.91;30.01;33.46;;
67294;Laerm;58160;51.434;5.978;2023-04-03T00:52:59;30.87;29.87;32.71;;
67294;Laerm;58160;51.434;5.978;2023-04-03T00:53:14;30.90;29.73;32.83;;
67294;Laerm;58160;51.434;5.978;2023-04-03T00:53:37;37.68;29.94;40.64;;
67294;Laerm;58160;51.434;5.978;2023-04-03T00:53:49;40.47;32.97;48.79;;
67294;Laerm;58160;51.434;5.978;2023-04-03T00:54:01;55.90;46.30;60.78;;
67294;Laerm;58160;51.434;5.978;2023-04-03T00:54:12;60.55;57.47;64.74;;
67294;Laerm;58160;51.434;5.978;2023-04-03T00:54:23;58.72;54.56;63.36;;
67294;Laerm;58160;51.434;5.978;2023-04-03T00:54:33;55.22;52.35;57.57;;
67294;Laerm;58160;51.434;5.978;2023-04-03T00:54:45;51.02;45.25;55.60;;
67294;Laerm;58160;51.434;5.978;2023-04-03T00:54:57;43.60;38.95;47.80;;
67294;Laerm;58160;51.434;5.978;2023-04-03T00:55:10;39.23;36.47;42.25;;
67294;Laerm;58160;51.434;5.978;2023-04-03T00:55:21;37.98;34.38;42.18;;
67294;Laerm;58160;51.434;5.978;2023-04-03T00:55:31;37.34;34.90;39.86;;
67294;Laerm;58160;51.434;5.978;2023-04-03T00:55:42;38.15;34.51;41.62;;
67294;Laerm;58160;51.434;5.978;2023-04-03T00:55:53;36.93;33.65;40.80;;
67294;Laerm;58160;51.434;5.978;2023-04-03T00:56:05;35.97;33.08;39.42;;
67294;Laerm;58160;51.434;5.978;2023-04-03T00:56:17;34.31;32.30;37.21;;
67294;Laerm;58160;51.434;5.978;2023-04-03T00:56:29;32.62;31.13;34.54;;
67294;Laerm;58160;51.434;5.978;2023-04-03T00:56:40;32.15;30.57;34.83;;
67294;Laerm;58160;51.434;5.978;2023-04-03T00:56:53;31.70;30.26;34.11;;
67294;Laerm;58160;51.434;5.978;2023-04-03T00:57:06;31.67;30.37;33.22;;
67294;Laerm;58160;51.434;5.978;2023-04-03T00:57:17;31.72;30.47;33.07;;
67294;Laerm;58160;51.434;5.978;2023-04-03T00:57:28;31.64;30.44;33.41;;
67294;Laerm;58160;51.434;5.978;2023-04-03T00:57:40;31.62;30.19;32.92;;
67294;Laerm;58160;51.434;5.978;2023-04-03T00:57:51;31.26;30.05;32.42;;
67294;Laerm;58160;51.434;5.978;2023-04-03T00:58:02;30.93;29.90;32.16;;
67294;Laerm;58160;51.434;5.978;2023-04-03T00:58:12;30.99;30.03;32.99;;
67294;Laerm;58160;51.434;5.978;2023-04-03T00:58:28;31.06;29.96;34.98;;
67294;Laerm;58160;51.434;5.978;2023-04-03T00:58:46;31.24;30.03;34.91;;
67294;Laerm;58160;51.434;5.978;2023-04-03T00:59:03;31.25;29.76;35.67;;
67294;Laerm;58160;51.434;5.978;2023-04-03T00:59:15;31.05;30.02;33.76;;
67294;Laerm;58160;51.434;5.978;2023-04-03T00:59:27;31.06;29.97;32.44;;
67294;Laerm;58160;51.434;5.978;2023-04-03T00:59:44;31.65;30.37;33.65;;
67294;Laerm;58160;51.434;5.978;2023-04-03T01:00:00;32.19;30.94;33.72;;
67294;Laerm;58160;51.434;5.978;2023-04-03T01:00:14;31.85;30.49;33.52;;
67294;Laerm;58160;51.434;5.978;2023-04-03T01:00:24;31.39;29.97;33.45;;
67294;Laerm;58160;51.434;5.978;2023-04-03T01:00:36;31.18;30.11;32.80;;
67294;Laerm;58160;51.434;5.978;2023-04-03T01:00:50;31.23;30.08;32.38;;
67294;Laerm;58160;51.434;5.978;2023-04-03T01:01:07;31.49;30.20;32.93;;
67294;Laerm;58160;51.434;5.978;2023-04-03T01:01:19;31.90;30.62;33.59;;
67294;Laerm;58160;51.434;5.978;2023-04-03T01:01:31;32.35;30.79;33.96;;
67294;Laerm;58160;51.434;5.978;2023-04-03T01:01:42;35.82;31.13;41.21;;
67294;Laerm;58160;51.434;5.978;2023-04-03T01:01:53;39.10;36.05;41.44;;
67294;Laerm;58160;51.434;5.978;2023-04-03T01:02:05;38.17;35.27;40.74;;
67294;Laerm;58160;51.434;5.978;2023-04-03T01:02:15;40.09;36.89;43.03;;
67294;Laerm;58160;51.434;5.978;2023-04-03T01:02:25;48.35;41.26;52.30;;
67294;Laerm;58160;51.434;5.978;2023-04-03T01:02:36;55.71;50.29;59.41;;
67294;Laerm;58160;51.434;5.978;2023-04-03T01:02:46;58.76;55.58;61.70;;
67294;Laerm;58160;51.434;5.978;2023-04-03T01:02:57;59.17;57.26;60.81;;